sensor_id;sensor_type;location;lat;lon;timestamp;P1;durP1;ratioP1;P2;durP2;ratioP2
17886;SDS011;9069;52.044;7.472;2023-02-05T00:01:26;9.70;;;6.43;;
17886;SDS011;9069;52.044;7.472;2023-02-05T00:03:53;9.80;;;5.70;;
17886;SDS011;9069;52.044;7.472;2023-02-05T00:06:20;9.60;;;6.13;;
17886;SDS011;9069;52.044;7.472;2023-02-05T00:08:47;8.40;;;5.75;;
17886;SDS011;9069;52.044;7.472;2023-02-05T00:11:14;8.57;;;5.55;;
17886;SDS011;9069;52.044;7.472;2023-02-05T00:13:41;10.25;;;6.25;;
17886;SDS011;9069;52.044;7.472;2023-02-05T00:16:09;9.93;;;6.38;;
17886;SDS011;9069;52.044;7.472;2023-02-05T00:18:40;10.50;;;5.68;;
17886;SDS011;9069;52.044;7.472;2023-02-05T00:21:08;14.05;;;6.38;;
17886;SDS011;9069;52.044;7.472;2023-02-05T00:23:35;8.20;;;5.47;;
17886;SDS011;9069;52.044;7.472;2023-02-05T00:26:03;8.95;;;5.78;;
17886;SDS011;9069;52.044;7.472;2023-02-05T00:28:31;8.88;;;5.57;;
17886;SDS011;9069;52.044;7.472;2023-02-05T00:30:59;12.13;;;6.72;;
17886;SDS011;9069;52.044;7.472;2023-02-05T00:33:26;11.38;;;5.40;;
17886;SDS011;9069;52.044;7.472;2023-02-05T00:35:53;10.13;;;6.35;;
17886;SDS011;9069;52.044;7.472;2023-02-05T00:38:20;12.20;;;7.03;;
17886;SDS011;9069;52.044;7.472;2023-02-05T00:40:48;11.50;;;5.82;;
17886;SDS011;9069;52.044;7.472;2023-02-05T00:43:15;13.52;;;6.15;;
17886;SDS011;9069;52.044;7.472;2023-02-05T00:45:41;10.85;;;5.97;;
17886;SDS011;9069;52.044;7.472;2023-02-05T00:48:08;13.02;;;5.40;;
17886;SDS011;9069;52.044;7.472;2023-02-05T00:50:35;12.60;;;5.70;;
17886;SDS011;9069;52.044;7.472;2023-02-05T00:53:02;12.90;;;6.13;;
17886;SDS011;9069;52.044;7.472;2023-02-05T00:55:29;11.18;;;5.85;;
17886;SDS011;9069;52.044;7.472;2023-02-05T00:57:57;11.90;;;5.32;;
17886;SDS011;9069;52.044;7.472;2023-02-05T01:00:23;10.43;;;5.90;;
17886;SDS011;9069;52.044;7.472;2023-02-05T01:02:52;7.68;;;5.22;;
17886;SDS011;9069;52.044;7.472;2023-02-05T01:05:19;10.73;;;5.97;;
17886;SDS011;9069;52.044;7.472;2023-02-05T01:07:46;9.38;;;5.47;;
17886;SDS011;9069;52.044;7.472;2023-02-05T01:10:13;8.48;;;5.20;;
17886;SDS011;9069;52.044;7.472;2023-02-05T01:12:40;9.75;;;5.20;;
17886;SDS011;9069;52.044;7.472;2023-02-05T01:15:07;8.73;;;5.50;;
17886;SDS011;9069;52.044;7.472;2023-02-05T01:17:36;8.15;;;5.47;;
17886;SDS011;9069;52.044;7.472;2023-02-05T01:20:03;14.77;;;6.03;;
17886;SDS011;9069;52.044;7.472;2023-02-05T01:22:31;8.50;;;5.30;;
17886;SDS011;9069;52.044;7.472;2023-02-05T01:24:58;9.57;;;6.15;;
17886;SDS011;9069;52.044;7.472;2023-02-05T01:27:25;10.63;;;6.20;;
17886;SDS011;9069;52.044;7.472;2023-02-05T01:29:52;14.50;;;6.53;;
17886;SDS011;9069;52.044;7.472;2023-02-05T01:32:19;13.55;;;6.47;;
17886;SDS011;9069;52.044;7.472;2023-02-05T01:34:46;8.65;;;5.78;;
17886;SDS011;9069;52.044;7.472;2023-02-05T01:37:13;9.88;;;6.70;;
17886;SDS011;9069;52.044;7.472;2023-02-05T01:39:40;12.05;;;6.50;;
17886;SDS011;9069;52.044;7.472;2023-02-05T01:42:26;12.07;;;6.50;;
17886;SDS011;9069;52.044;7.472;2023-02-05T01:47:52;8.32;;;5.43;;
17886;SDS011;9069;52.044;7.472;2023-02-05T01:50:27;9.23;;;5.72;;
17886;SDS011;9069;52.044;7.472;2023-02-05T01:53:05;10.90;;;5.97;;
17886;SDS011;9069;52.044;7.472;2023-02-05T01:55:50;13.32;;;6.18;;
17886;SDS011;9069;52.044;7.472;2023-02-05T01:58:22;9.25;;;5.43;;
17886;SDS011;9069;52.044;7.472;2023-02-05T02:00:50;10.23;;;6.05;;
17886;SDS011;9069;52.044;7.472;2023-02-05T02:03:17;13.95;;;6.88;;
17886;SDS011;9069;52.044;7.472;2023-02-05T02:05:44;10.32;;;6.22;;
17886;SDS011;9069;52.044;7.472;2023-02-05T02:08:11;11.68;;;6.88;;
17886;SDS011;9069;52.044;7.472;2023-02-05T02:10:39;12.15;;;6.32;;
17886;SDS011;9069;52.044;7.472;2023-02-05T02:13:09;9.40;;;6.38;;
17886;SDS011;9069;52.044;7.472;2023-02-05T02:15:36;10.88;;;6.60;;
17886;SDS011;9069;52.044;7.472;2023-02-05T02:18:03;10.48;;;6.70;;
17886;SDS011;9069;52.044;7.472;2023-02-05T02:20:57;10.90;;;6.68;;
17886;SDS011;9069;52.044;7.472;2023-02-05T02:29:22;12.27;;;6.88;;
17886;SDS011;9069;52.044;7.472;2023-02-05T02:31:58;12.07;;;6.47;;
17886;SDS011;9069;52.044;7.472;2023-02-05T02:34:38;11.50;;;7.18;;
17886;SDS011;9069;52.044;7.472;2023-02-05T02:37:22;11.20;;;6.97;;
17886;SDS011;9069;52.044;7.472;2023-02-05T02:39:59;10.55;;;6.47;;
17886;SDS011;9069;52.044;7.472;2023-02-05T02:42:35;12.10;;;7.30;;
17886;SDS011;9069;52.044;7.472;2023-02-05T02:45:39;13.35;;;7.03;;
17886;SDS011;9069;52.044;7.472;2023-02-05T02:48:11;10.15;;;6.72;;
17886;SDS011;9069;52.044;7.472;2023-02-05T02:50:42;11.60;;;6.35;;
17886;SDS011;9069;52.044;7.472;2023-02-05T02:53:14;13.57;;;6.95;;
17886;SDS011;9069;52.044;7.472;2023-02-05T02:55:44;15.20;;;7.15;;
17886;SDS011;9069;52.044;7.472;2023-02-05T02:58:20;9.98;;;7.38;;
17886;SDS011;9069;52.044;7.472;2023-02-05T03:00:51;9.45;;;6.47;;
17886;SDS011;9069;52.044;7.472;2023-02-05T03:03:20;10.75;;;6.55;;
17886;SDS011;9069;52.044;7.472;2023-02-05T03:05:49;9.48;;;6.07;;
17886;SDS011;9069;52.044;7.472;2023-02-05T03:08:24;11.40;;;6.95;;
17886;SDS011;9069;52.044;7.472;2023-02-05T03:10:58;13.40;;;7.13;;
17886;SDS011;9069;52.044;7.472;2023-02-05T03:13:28;13.20;;;7.93;;
17886;SDS011;9069;52.044;7.472;2023-02-05T03:15:59;14.45;;;6.82;;
17886;SDS011;9069;52.044;7.472;2023-02-05T03:18:26;16.40;;;8.23;;
17886;SDS011;9069;52.044;7.472;2023-02-05T03:20:55;13.70;;;7.85;;
17886;SDS011;9069;52.044;7.472;2023-02-05T03:23:26;14.98;;;7.53;;
17886;SDS011;9069;52.044;7.472;2023-02-05T03:25:54;10.70;;;7.00;;
17886;SDS011;9069;52.044;7.472;2023-02-05T03:28:29;11.55;;;7.07;;
17886;SDS011;9069;52.044;7.472;2023-02-05T03:31:12;14.30;;;7.00;;
17886;SDS011;9069;52.044;7.472;2023-02-05T03:36:42;11.75;;;7.30;;
17886;SDS011;9069;52.044;7.472;2023-02-05T03:39:21;12.93;;;7.05;;
17886;SDS011;9069;52.044;7.472;2023-02-05T03:42:19;11.55;;;7.13;;
17886;SDS011;9069;52.044;7.472;2023-02-05T03:45:00;14.95;;;6.90;;
17886;SDS011;9069;52.044;7.472;2023-02-05T03:50:28;11.52;;;7.00;;
17886;SDS011;9069;52.044;7.472;2023-02-05T03:53:11;15.57;;;7.93;;
17886;SDS011;9069;52.044;7.472;2023-02-05T03:55:49;16.58;;;6.95;;
17886;SDS011;9069;52.044;7.472;2023-02-05T03:58:22;14.63;;;7.65;;
17886;SDS011;9069;52.044;7.472;2023-02-05T04:01:09;13.98;;;7.53;;
17886;SDS011;9069;52.044;7.472;2023-02-05T04:03:37;11.50;;;7.05;;
17886;SDS011;9069;52.044;7.472;2023-02-05T04:06:05;11.15;;;6.97;;
17886;SDS011;9069;52.044;7.472;2023-02-05T04:08:33;12.63;;;7.43;;
17886;SDS011;9069;52.044;7.472;2023-02-05T04:11:01;12.65;;;7.47;;
17886;SDS011;9069;52.044;7.472;2023-02-05T04:13:29;13.30;;;7.05;;
17886;SDS011;9069;52.044;7.472;2023-02-05T04:15:57;13.23;;;8.15;;
17886;SDS011;9069;52.044;7.472;2023-02-05T04:18:23;15.68;;;8.30;;
17886;SDS011;9069;52.044;7.472;2023-02-05T04:20:51;14.85;;;7.95;;
17886;SDS011;9069;52.044;7.472;2023-02-05T04:23:21;11.68;;;7.85;;
17886;SDS011;9069;52.044;7.472;2023-02-05T04:25:53;13.35;;;7.45;;
17886;SDS011;9069;52.044;7.472;2023-02-05T04:28:27;13.32;;;7.18;;
17886;SDS011;9069;52.044;7.472;2023-02-05T04:30:54;12.32;;;7.22;;
17886;SDS011;9069;52.044;7.472;2023-02-05T04:33:22;14.90;;;8.20;;
17886;SDS011;9069;52.044;7.472;2023-02-05T04:35:49;15.15;;;8.05;;
17886;SDS011;9069;52.044;7.472;2023-02-05T04:38:16;14.82;;;7.93;;
17886;SDS011;9069;52.044;7.472;2023-02-05T04:40:43;13.85;;;7.57;;
17886;SDS011;9069;52.044;7.472;2023-02-05T04:43:10;15.20;;;8.55;;
17886;SDS011;9069;52.044;7.472;2023-02-05T04:45:37;23.45;;;7.45;;
17886;SDS011;9069;52.044;7.472;2023-02-05T04:48:04;15.02;;;7.38;;
17886;SDS011;9069;52.044;7.472;2023-02-05T04:50:31;13.75;;;7.63;;
17886;SDS011;9069;52.044;7.472;2023-02-05T04:52:58;21.70;;;7.55;;
17886;SDS011;9069;52.044;7.472;2023-02-05T04:55:27;11.60;;;7.13;;
17886;SDS011;9069;52.044;7.472;2023-02-05T04:57:55;12.13;;;8.32;;
17886;SDS011;9069;52.044;7.472;2023-02-05T05:00:22;14.20;;;7.10;;
17886;SDS011;9069;52.044;7.472;2023-02-05T05:02:49;16.60;;;7.85;;
17886;SDS011;9069;52.044;7.472;2023-02-05T05:05:16;20.58;;;8.15;;
17886;SDS011;9069;52.044;7.472;2023-02-05T05:07:43;17.38;;;7.78;;
17886;SDS011;9069;52.044;7.472;2023-02-05T05:10:10;14.75;;;7.85;;
17886;SDS011;9069;52.044;7.472;2023-02-05T05:12:38;14.57;;;7.13;;
17886;SDS011;9069;52.044;7.472;2023-02-05T05:15:05;16.17;;;7.57;;
17886;SDS011;9069;52.044;7.472;2023-02-05T05:17:32;24.17;;;8.18;;
17886;SDS011;9069;52.044;7.472;2023-02-05T05:20:00;17.10;;;7.82;;
17886;SDS011;9069;52.044;7.472;2023-02-05T05:22:27;16.80;;;8.73;;
17886;SDS011;9069;52.044;7.472;2023-02-05T05:24:54;14.88;;;7.10;;
17886;SDS011;9069;52.044;7.472;2023-02-05T05:27:21;16.65;;;7.68;;
17886;SDS011;9069;52.044;7.472;2023-02-05T05:29:49;18.33;;;7.85;;
17886;SDS011;9069;52.044;7.472;2023-02-05T05:32:16;18.23;;;8.80;;
17886;SDS011;9069;52.044;7.472;2023-02-05T05:34:43;14.00;;;8.60;;
17886;SDS011;9069;52.044;7.472;2023-02-05T05:37:10;19.48;;;8.27;;
17886;SDS011;9069;52.044;7.472;2023-02-05T05:39:36;16.17;;;8.27;;
17886;SDS011;9069;52.044;7.472;2023-02-05T05:42:22;14.10;;;7.72;;
17886;SDS011;9069;52.044;7.472;2023-02-05T05:45:07;23.83;;;9.40;;
17886;SDS011;9069;52.044;7.472;2023-02-05T05:47:35;16.05;;;7.90;;
17886;SDS011;9069;52.044;7.472;2023-02-05T05:50:02;22.40;;;8.40;;
17886;SDS011;9069;52.044;7.472;2023-02-05T05:52:29;15.07;;;7.75;;
17886;SDS011;9069;52.044;7.472;2023-02-05T05:54:58;19.88;;;8.90;;
17886;SDS011;9069;52.044;7.472;2023-02-05T05:57:24;23.80;;;9.35;;
17886;SDS011;9069;52.044;7.472;2023-02-05T05:59:51;18.90;;;8.65;;
17886;SDS011;9069;52.044;7.472;2023-02-05T06:02:18;19.38;;;8.88;;
17886;SDS011;9069;52.044;7.472;2023-02-05T06:04:45;16.63;;;8.52;;
17886;SDS011;9069;52.044;7.472;2023-02-05T06:07:12;19.73;;;8.95;;
17886;SDS011;9069;52.044;7.472;2023-02-05T06:09:39;14.70;;;8.70;;
17886;SDS011;9069;52.044;7.472;2023-02-05T06:12:06;20.00;;;9.10;;
17886;SDS011;9069;52.044;7.472;2023-02-05T06:14:32;19.05;;;8.50;;
17886;SDS011;9069;52.044;7.472;2023-02-05T06:16:59;18.15;;;9.00;;
17886;SDS011;9069;52.044;7.472;2023-02-05T06:19:26;23.45;;;8.88;;
17886;SDS011;9069;52.044;7.472;2023-02-05T06:21:53;18.88;;;8.68;;
17886;SDS011;9069;52.044;7.472;2023-02-05T06:24:20;21.30;;;9.60;;
17886;SDS011;9069;52.044;7.472;2023-02-05T06:26:46;20.17;;;10.40;;
17886;SDS011;9069;52.044;7.472;2023-02-05T06:29:13;23.88;;;10.23;;
17886;SDS011;9069;52.044;7.472;2023-02-05T06:31:40;18.63;;;9.55;;
17886;SDS011;9069;52.044;7.472;2023-02-05T06:34:07;21.55;;;9.63;;
17886;SDS011;9069;52.044;7.472;2023-02-05T06:36:34;23.15;;;10.38;;
17886;SDS011;9069;52.044;7.472;2023-02-05T06:39:01;22.25;;;10.80;;
17886;SDS011;9069;52.044;7.472;2023-02-05T06:41:28;23.15;;;10.52;;
17886;SDS011;9069;52.044;7.472;2023-02-05T06:43:55;19.95;;;9.25;;
17886;SDS011;9069;52.044;7.472;2023-02-05T06:46:21;27.95;;;10.52;;
17886;SDS011;9069;52.044;7.472;2023-02-05T06:48:48;26.13;;;11.35;;
17886;SDS011;9069;52.044;7.472;2023-02-05T06:51:15;26.73;;;11.80;;
17886;SDS011;9069;52.044;7.472;2023-02-05T06:53:42;23.92;;;11.10;;
17886;SDS011;9069;52.044;7.472;2023-02-05T06:56:09;23.17;;;10.50;;
17886;SDS011;9069;52.044;7.472;2023-02-05T06:58:36;24.60;;;12.40;;
17886;SDS011;9069;52.044;7.472;2023-02-05T07:01:03;28.73;;;11.38;;
17886;SDS011;9069;52.044;7.472;2023-02-05T07:03:30;24.75;;;11.57;;
17886;SDS011;9069;52.044;7.472;2023-02-05T07:06:00;27.85;;;11.85;;
17886;SDS011;9069;52.044;7.472;2023-02-05T07:08:28;34.50;;;14.13;;
17886;SDS011;9069;52.044;7.472;2023-02-05T07:10:55;32.40;;;12.68;;
17886;SDS011;9069;52.044;7.472;2023-02-05T07:13:22;33.88;;;14.15;;
17886;SDS011;9069;52.044;7.472;2023-02-05T07:15:50;26.30;;;13.48;;
17886;SDS011;9069;52.044;7.472;2023-02-05T07:18:16;29.25;;;12.98;;
17886;SDS011;9069;52.044;7.472;2023-02-05T07:20:43;29.27;;;12.60;;
17886;SDS011;9069;52.044;7.472;2023-02-05T07:23:10;28.48;;;12.65;;
17886;SDS011;9069;52.044;7.472;2023-02-05T07:25:37;25.40;;;12.05;;
17886;SDS011;9069;52.044;7.472;2023-02-05T07:28:05;24.67;;;10.98;;
17886;SDS011;9069;52.044;7.472;2023-02-05T07:30:35;25.50;;;11.38;;
17886;SDS011;9069;52.044;7.472;2023-02-05T07:33:02;21.75;;;10.68;;
17886;SDS011;9069;52.044;7.472;2023-02-05T07:35:30;23.60;;;11.70;;
17886;SDS011;9069;52.044;7.472;2023-02-05T07:37:58;18.45;;;9.18;;
17886;SDS011;9069;52.044;7.472;2023-02-05T07:40:24;23.67;;;9.85;;
17886;SDS011;9069;52.044;7.472;2023-02-05T07:42:51;18.02;;;8.80;;
17886;SDS011;9069;52.044;7.472;2023-02-05T07:45:18;18.73;;;9.48;;
17886;SDS011;9069;52.044;7.472;2023-02-05T07:47:45;17.20;;;8.48;;
17886;SDS011;9069;52.044;7.472;2023-02-05T07:50:15;17.23;;;8.20;;
17886;SDS011;9069;52.044;7.472;2023-02-05T07:52:42;14.85;;;8.10;;
17886;SDS011;9069;52.044;7.472;2023-02-05T07:55:09;16.00;;;7.80;;
17886;SDS011;9069;52.044;7.472;2023-02-05T07:57:36;13.32;;;7.22;;
17886;SDS011;9069;52.044;7.472;2023-02-05T08:00:03;14.95;;;7.80;;
17886;SDS011;9069;52.044;7.472;2023-02-05T08:02:37;12.25;;;6.70;;
17886;SDS011;9069;52.044;7.472;2023-02-05T08:05:04;14.15;;;7.13;;
17886;SDS011;9069;52.044;7.472;2023-02-05T08:07:31;16.80;;;6.32;;
17886;SDS011;9069;52.044;7.472;2023-02-05T08:09:58;13.25;;;7.28;;
17886;SDS011;9069;52.044;7.472;2023-02-05T08:12:25;15.30;;;6.57;;
17886;SDS011;9069;52.044;7.472;2023-02-05T08:14:52;10.77;;;6.47;;
17886;SDS011;9069;52.044;7.472;2023-02-05T08:17:19;15.77;;;6.28;;
17886;SDS011;9069;52.044;7.472;2023-02-05T08:19:45;14.15;;;7.05;;
17886;SDS011;9069;52.044;7.472;2023-02-05T08:22:12;13.50;;;6.72;;
17886;SDS011;9069;52.044;7.472;2023-02-05T08:24:39;11.25;;;5.60;;
17886;SDS011;9069;52.044;7.472;2023-02-05T08:27:05;17.98;;;6.03;;
17886;SDS011;9069;52.044;7.472;2023-02-05T08:29:32;10.75;;;5.20;;
17886;SDS011;9069;52.044;7.472;2023-02-05T08:31:59;7.90;;;4.43;;
17886;SDS011;9069;52.044;7.472;2023-02-05T08:34:26;8.07;;;3.53;;
17886;SDS011;9069;52.044;7.472;2023-02-05T08:36:53;6.28;;;3.15;;
17886;SDS011;9069;52.044;7.472;2023-02-05T08:39:20;4.95;;;2.60;;
17886;SDS011;9069;52.044;7.472;2023-02-05T08:41:46;3.72;;;1.77;;
17886;SDS011;9069;52.044;7.472;2023-02-05T08:44:13;9.25;;;2.55;;
17886;SDS011;9069;52.044;7.472;2023-02-05T08:46:40;4.45;;;1.80;;
17886;SDS011;9069;52.044;7.472;2023-02-05T08:49:15;18.73;;;3.15;;
17886;SDS011;9069;52.044;7.472;2023-02-05T08:51:42;7.57;;;2.80;;
17886;SDS011;9069;52.044;7.472;2023-02-05T08:54:09;13.75;;;2.00;;
17886;SDS011;9069;52.044;7.472;2023-02-05T08:56:38;8.23;;;1.50;;
17886;SDS011;9069;52.044;7.472;2023-02-05T08:59:06;4.45;;;1.25;;
17886;SDS011;9069;52.044;7.472;2023-02-05T09:01:34;4.72;;;1.67;;
17886;SDS011;9069;52.044;7.472;2023-02-05T09:04:12;4.13;;;1.10;;
17886;SDS011;9069;52.044;7.472;2023-02-05T09:06:41;4.05;;;1.20;;
17886;SDS011;9069;52.044;7.472;2023-02-05T09:09:07;5.18;;;1.30;;
17886;SDS011;9069;52.044;7.472;2023-02-05T09:11:35;4.20;;;1.15;;
17886;SDS011;9069;52.044;7.472;2023-02-05T09:14:02;2.47;;;0.90;;
17886;SDS011;9069;52.044;7.472;2023-02-05T09:16:30;2.45;;;0.80;;
17886;SDS011;9069;52.044;7.472;2023-02-05T09:18:58;2.90;;;1.02;;
17886;SDS011;9069;52.044;7.472;2023-02-05T09:21:25;2.92;;;0.85;;
17886;SDS011;9069;52.044;7.472;2023-02-05T09:23:52;14.23;;;1.60;;
17886;SDS011;9069;52.044;7.472;2023-02-05T09:26:20;3.72;;;0.98;;
17886;SDS011;9069;52.044;7.472;2023-02-05T09:28:47;6.35;;;1.45;;
17886;SDS011;9069;52.044;7.472;2023-02-05T09:31:15;7.28;;;1.30;;
17886;SDS011;9069;52.044;7.472;2023-02-05T09:33:44;5.55;;;1.17;;
17886;SDS011;9069;52.044;7.472;2023-02-05T09:36:15;2.80;;;0.90;;
17886;SDS011;9069;52.044;7.472;2023-02-05T09:38:46;1.92;;;0.57;;
17886;SDS011;9069;52.044;7.472;2023-02-05T09:43:53;5.10;;;0.90;;
17886;SDS011;9069;52.044;7.472;2023-02-05T09:46:33;2.05;;;0.40;;
17886;SDS011;9069;52.044;7.472;2023-02-05T09:49:24;1.33;;;0.80;;
17886;SDS011;9069;52.044;7.472;2023-02-05T09:51:59;1.20;;;0.57;;
17886;SDS011;9069;52.044;7.472;2023-02-05T09:54:29;2.25;;;0.47;;
17886;SDS011;9069;52.044;7.472;2023-02-05T09:57:02;2.83;;;0.82;;
17886;SDS011;9069;52.044;7.472;2023-02-05T09:59:32;2.05;;;0.60;;
17886;SDS011;9069;52.044;7.472;2023-02-05T10:02:01;2.55;;;0.77;;
17886;SDS011;9069;52.044;7.472;2023-02-05T10:04:46;2.17;;;0.80;;
17886;SDS011;9069;52.044;7.472;2023-02-05T10:07:25;1.88;;;0.90;;
17886;SDS011;9069;52.044;7.472;2023-02-05T10:10:18;2.33;;;0.60;;
17886;SDS011;9069;52.044;7.472;2023-02-05T10:15:59;2.28;;;0.50;;
17886;SDS011;9069;52.044;7.472;2023-02-05T10:18:49;4.90;;;0.77;;
17886;SDS011;9069;52.044;7.472;2023-02-05T10:26:59;3.50;;;0.90;;
17886;SDS011;9069;52.044;7.472;2023-02-05T10:29:41;1.17;;;0.50;;
17886;SDS011;9069;52.044;7.472;2023-02-05T10:35:12;2.50;;;0.77;;
17886;SDS011;9069;52.044;7.472;2023-02-05T10:37:54;2.15;;;0.75;;
17886;SDS011;9069;52.044;7.472;2023-02-05T10:40:24;1.75;;;0.70;;
17886;SDS011;9069;52.044;7.472;2023-02-05T10:42:59;2.92;;;0.88;;
17886;SDS011;9069;52.044;7.472;2023-02-05T10:45:30;4.70;;;1.30;;
17886;SDS011;9069;52.044;7.472;2023-02-05T10:50:50;10.95;;;1.95;;
17886;SDS011;9069;52.044;7.472;2023-02-05T10:53:45;7.53;;;1.60;;
17886;SDS011;9069;52.044;7.472;2023-02-05T10:56:16;3.58;;;1.63;;
17886;SDS011;9069;52.044;7.472;2023-02-05T10:58:54;6.30;;;1.98;;
17886;SDS011;9069;52.044;7.472;2023-02-05T11:01:24;7.72;;;1.75;;
17886;SDS011;9069;52.044;7.472;2023-02-05T11:06:49;6.55;;;2.22;;
17886;SDS011;9069;52.044;7.472;2023-02-05T11:11:50;8.38;;;2.55;;
17886;SDS011;9069;52.044;7.472;2023-02-05T11:14:20;6.05;;;2.55;;
17886;SDS011;9069;52.044;7.472;2023-02-05T11:16:53;8.65;;;2.38;;
17886;SDS011;9069;52.044;7.472;2023-02-05T11:19:25;7.85;;;2.50;;
17886;SDS011;9069;52.044;7.472;2023-02-05T11:21:54;11.00;;;2.17;;
17886;SDS011;9069;52.044;7.472;2023-02-05T11:27:10;5.93;;;2.60;;
17886;SDS011;9069;52.044;7.472;2023-02-05T11:29:41;3.97;;;1.80;;
17886;SDS011;9069;52.044;7.472;2023-02-05T11:37:46;5.00;;;1.80;;
17886;SDS011;9069;52.044;7.472;2023-02-05T11:40:25;10.13;;;2.38;;
17886;SDS011;9069;52.044;7.472;2023-02-05T11:43:36;3.47;;;1.83;;
17886;SDS011;9069;52.044;7.472;2023-02-05T11:45:50;7.93;;;1.85;;
17886;SDS011;9069;52.044;7.472;2023-02-05T11:51:07;3.42;;;1.80;;
17886;SDS011;9069;52.044;7.472;2023-02-05T11:53:46;6.43;;;2.05;;
17886;SDS011;9069;52.044;7.472;2023-02-05T11:56:20;5.95;;;1.92;;
17886;SDS011;9069;52.044;7.472;2023-02-05T11:58:57;5.20;;;1.92;;
17886;SDS011;9069;52.044;7.472;2023-02-05T12:01:33;3.58;;;2.00;;
17886;SDS011;9069;52.044;7.472;2023-02-05T12:04:21;5.68;;;2.05;;
17886;SDS011;9069;52.044;7.472;2023-02-05T12:06:51;5.13;;;2.00;;
17886;SDS011;9069;52.044;7.472;2023-02-05T12:09:22;3.45;;;1.77;;
17886;SDS011;9069;52.044;7.472;2023-02-05T12:22:44;5.15;;;2.90;;
17886;SDS011;9069;52.044;7.472;2023-02-05T12:31:39;6.53;;;2.92;;
17886;SDS011;9069;52.044;7.472;2023-02-05T12:42:34;11.90;;;3.30;;
17886;SDS011;9069;52.044;7.472;2023-02-05T12:51:01;9.60;;;4.22;;
17886;SDS011;9069;52.044;7.472;2023-02-05T12:56:59;8.45;;;3.42;;
17886;SDS011;9069;52.044;7.472;2023-02-05T12:59:37;10.43;;;3.42;;
17886;SDS011;9069;52.044;7.472;2023-02-05T13:02:14;7.82;;;3.17;;
17886;SDS011;9069;52.044;7.472;2023-02-05T13:07:33;10.07;;;3.40;;
17886;SDS011;9069;52.044;7.472;2023-02-05T13:10:04;9.13;;;3.53;;
17886;SDS011;9069;52.044;7.472;2023-02-05T13:12:40;6.70;;;3.25;;
17886;SDS011;9069;52.044;7.472;2023-02-05T13:15:20;6.53;;;2.75;;
17886;SDS011;9069;52.044;7.472;2023-02-05T13:17:56;14.90;;;3.17;;
17886;SDS011;9069;52.044;7.472;2023-02-05T13:23:24;9.00;;;3.20;;
17886;SDS011;9069;52.044;7.472;2023-02-05T13:26:12;8.07;;;2.70;;
17886;SDS011;9069;52.044;7.472;2023-02-05T13:28:51;9.00;;;2.63;;
17886;SDS011;9069;52.044;7.472;2023-02-05T13:33:52;13.23;;;3.13;;
17886;SDS011;9069;52.044;7.472;2023-02-05T13:42:01;11.23;;;2.67;;
17886;SDS011;9069;52.044;7.472;2023-02-05T13:47:46;9.05;;;2.67;;
17886;SDS011;9069;52.044;7.472;2023-02-05T14:01:56;15.75;;;2.28;;
17886;SDS011;9069;52.044;7.472;2023-02-05T14:04:27;13.77;;;2.85;;
17886;SDS011;9069;52.044;7.472;2023-02-05T14:07:16;10.10;;;1.73;;
17886;SDS011;9069;52.044;7.472;2023-02-05T14:09:50;11.48;;;1.90;;
17886;SDS011;9069;52.044;7.472;2023-02-05T14:12:22;15.63;;;2.10;;
17886;SDS011;9069;52.044;7.472;2023-02-05T14:30:48;13.80;;;2.25;;
17886;SDS011;9069;52.044;7.472;2023-02-05T14:33:26;17.10;;;2.55;;
17886;SDS011;9069;52.044;7.472;2023-02-05T14:38:50;10.48;;;2.00;;
17886;SDS011;9069;52.044;7.472;2023-02-05T14:41:19;12.38;;;2.10;;
17886;SDS011;9069;52.044;7.472;2023-02-05T14:48:53;7.93;;;1.98;;
17886;SDS011;9069;52.044;7.472;2023-02-05T14:53:58;20.73;;;2.60;;
17886;SDS011;9069;52.044;7.472;2023-02-05T14:56:37;14.02;;;3.20;;
17886;SDS011;9069;52.044;7.472;2023-02-05T14:59:23;16.65;;;2.67;;
17886;SDS011;9069;52.044;7.472;2023-02-05T15:01:57;14.45;;;2.63;;
17886;SDS011;9069;52.044;7.472;2023-02-05T15:04:31;17.67;;;3.22;;
17886;SDS011;9069;52.044;7.472;2023-02-05T15:07:20;11.63;;;2.40;;
17886;SDS011;9069;52.044;7.472;2023-02-05T15:15:22;9.73;;;2.55;;
17886;SDS011;9069;52.044;7.472;2023-02-05T15:20:34;26.17;;;2.72;;
17886;SDS011;9069;52.044;7.472;2023-02-05T15:23:16;16.02;;;2.45;;
17886;SDS011;9069;52.044;7.472;2023-02-05T15:28:29;18.58;;;2.85;;
17886;SDS011;9069;52.044;7.472;2023-02-05T15:31:24;17.38;;;2.95;;
17886;SDS011;9069;52.044;7.472;2023-02-05T15:34:17;21.05;;;3.08;;
17886;SDS011;9069;52.044;7.472;2023-02-05T15:39:51;14.48;;;2.45;;
17886;SDS011;9069;52.044;7.472;2023-02-05T15:42:35;12.02;;;2.08;;
17886;SDS011;9069;52.044;7.472;2023-02-05T15:45:42;13.93;;;2.00;;
17886;SDS011;9069;52.044;7.472;2023-02-05T15:50:46;24.73;;;3.58;;
17886;SDS011;9069;52.044;7.472;2023-02-05T15:55:50;16.65;;;2.53;;
17886;SDS011;9069;52.044;7.472;2023-02-05T15:58:18;11.73;;;2.20;;
17886;SDS011;9069;52.044;7.472;2023-02-05T16:00:48;12.90;;;2.28;;
17886;SDS011;9069;52.044;7.472;2023-02-05T16:03:35;16.33;;;2.58;;
17886;SDS011;9069;52.044;7.472;2023-02-05T16:06:04;14.50;;;2.78;;
17886;SDS011;9069;52.044;7.472;2023-02-05T16:08:32;14.32;;;2.53;;
17886;SDS011;9069;52.044;7.472;2023-02-05T16:10:59;19.75;;;2.92;;
17886;SDS011;9069;52.044;7.472;2023-02-05T16:13:31;15.32;;;2.70;;
17886;SDS011;9069;52.044;7.472;2023-02-05T16:16:16;15.75;;;2.85;;
17886;SDS011;9069;52.044;7.472;2023-02-05T16:18:50;15.73;;;3.50;;
17886;SDS011;9069;52.044;7.472;2023-02-05T16:21:22;25.20;;;4.03;;
17886;SDS011;9069;52.044;7.472;2023-02-05T16:26:55;21.73;;;3.33;;
17886;SDS011;9069;52.044;7.472;2023-02-05T16:29:40;20.95;;;4.70;;
17886;SDS011;9069;52.044;7.472;2023-02-05T16:32:35;20.60;;;2.60;;
17886;SDS011;9069;52.044;7.472;2023-02-05T16:35:23;14.32;;;3.03;;
17886;SDS011;9069;52.044;7.472;2023-02-05T16:37:55;15.07;;;3.47;;
17886;SDS011;9069;52.044;7.472;2023-02-05T16:40:27;15.55;;;3.30;;
17886;SDS011;9069;52.044;7.472;2023-02-05T16:43:45;25.80;;;3.53;;
17886;SDS011;9069;52.044;7.472;2023-02-05T16:51:00;16.92;;;3.33;;
17886;SDS011;9069;52.044;7.472;2023-02-05T16:53:28;17.85;;;3.17;;
17886;SDS011;9069;52.044;7.472;2023-02-05T16:55:58;18.35;;;3.03;;
17886;SDS011;9069;52.044;7.472;2023-02-05T16:58:36;14.20;;;3.72;;
17886;SDS011;9069;52.044;7.472;2023-02-05T17:01:11;12.63;;;2.78;;
17886;SDS011;9069;52.044;7.472;2023-02-05T17:03:39;12.45;;;2.63;;
17886;SDS011;9069;52.044;7.472;2023-02-05T17:06:12;15.85;;;2.83;;
17886;SDS011;9069;52.044;7.472;2023-02-05T17:08:40;12.93;;;2.60;;
17886;SDS011;9069;52.044;7.472;2023-02-05T17:11:31;14.88;;;3.38;;
17886;SDS011;9069;52.044;7.472;2023-02-05T17:16:39;15.38;;;2.67;;
17886;SDS011;9069;52.044;7.472;2023-02-05T17:19:24;13.88;;;2.83;;
17886;SDS011;9069;52.044;7.472;2023-02-05T17:24:52;13.10;;;2.30;;
17886;SDS011;9069;52.044;7.472;2023-02-05T17:27:25;13.18;;;2.63;;
17886;SDS011;9069;52.044;7.472;2023-02-05T17:29:55;14.00;;;2.35;;
17886;SDS011;9069;52.044;7.472;2023-02-05T17:32:25;22.80;;;3.33;;
17886;SDS011;9069;52.044;7.472;2023-02-05T17:34:53;10.18;;;2.70;;
17886;SDS011;9069;52.044;7.472;2023-02-05T17:37:20;14.13;;;3.15;;
17886;SDS011;9069;52.044;7.472;2023-02-05T17:39:47;12.88;;;3.50;;
17886;SDS011;9069;52.044;7.472;2023-02-05T17:42:19;14.85;;;2.95;;
17886;SDS011;9069;52.044;7.472;2023-02-05T17:44:48;11.75;;;2.72;;
17886;SDS011;9069;52.044;7.472;2023-02-05T17:47:15;11.88;;;2.45;;
17886;SDS011;9069;52.044;7.472;2023-02-05T17:49:42;15.82;;;2.65;;
17886;SDS011;9069;52.044;7.472;2023-02-05T17:52:09;15.52;;;2.50;;
17886;SDS011;9069;52.044;7.472;2023-02-05T17:54:36;9.38;;;2.50;;
17886;SDS011;9069;52.044;7.472;2023-02-05T17:57:10;11.02;;;2.30;;
17886;SDS011;9069;52.044;7.472;2023-02-05T17:59:40;13.52;;;2.42;;
17886;SDS011;9069;52.044;7.472;2023-02-05T18:02:10;11.40;;;2.97;;
17886;SDS011;9069;52.044;7.472;2023-02-05T18:04:38;11.25;;;2.58;;
17886;SDS011;9069;52.044;7.472;2023-02-05T18:07:15;13.55;;;3.00;;